Station Historical Data
Daily Summary for January 20, 2017 Units:  English    Metric   Both
« Previous Day
Next Day »
Daily Weekly Monthly Yearly Custom
  High: Low: Average:
Temperature: 38.5 °F 34.1 °F 37.2 °F
Dew Point: 37.5 °F 32.8 °F 36 °F
Humidity: 96 % 95 % 95 %
Wind Speed: 24.0 mph 0.0 mph 9.2 mph
Wind Gust: 31.0 mph - -
Wind:- - South
Pressure: 29.73 in 29.35 in -
Precipitation: 0.00 in    
Historical Graphs
 
 
Tabular Data for January 20, 2017
Time Temperature Dew Point Pressure Wind Wind Speed Wind Gust Humidity Rainfall Rate (Hourly) solar
00:02 38.1 °F 36.8 °F 29.73 in SSE 14.0 mph 16.0 mph 95 % 0.00 in 0.00 W/m2
00:07 38.2 °F 37.2 °F 29.72 in SSE 9.0 mph 19.0 mph 96 % 0.00 in 0.00 W/m2
00:12 38.2 °F 37.2 °F 29.71 in SSE 11.0 mph 20.0 mph 96 % 0.00 in 0.00 W/m2
00:17 38.3 °F 37.3 °F 29.71 in South 11.0 mph 28.0 mph 96 % 0.00 in 0.00 W/m2
00:22 38.3 °F 37.3 °F 29.70 in SE 12.0 mph 20.0 mph 96 % 0.00 in 0.00 W/m2
00:27 38.2 °F 37.2 °F 29.70 in SSE 15.0 mph 21.0 mph 96 % 0.00 in 0.00 W/m2
00:32 38.3 °F 37.3 °F 29.70 in SSE 6.0 mph 20.0 mph 96 % 0.00 in 0.00 W/m2
00:37 38.2 °F 37.2 °F 29.69 in SE 10.0 mph 18.0 mph 96 % 0.00 in 0.00 W/m2
00:42 38.3 °F 37.3 °F 29.68 in SSE 11.0 mph 20.0 mph 96 % 0.00 in 0.00 W/m2
00:47 38.2 °F 37.2 °F 29.68 in South 10.0 mph 18.0 mph 96 % 0.00 in 0.00 W/m2
00:52 38.2 °F 37.2 °F 29.67 in SSW 14.0 mph 20.0 mph 96 % 0.00 in 0.00 W/m2
00:58 38.2 °F 37.2 °F 29.66 in South 7.0 mph 18.0 mph 96 % 0.00 in 0.00 W/m2
01:03 38.2 °F 37.2 °F 29.65 in SSE 15.0 mph 25.0 mph 96 % 0.00 in 0.00 W/m2
01:08 38.2 °F 37.2 °F 29.65 in SE 19.0 mph 22.0 mph 96 % 0.00 in 0.00 W/m2
01:13 38.3 °F 37.3 °F 29.65 in South 7.0 mph 24.0 mph 96 % 0.00 in 0.00 W/m2
01:18 38.3 °F 37.3 °F 29.65 in SSE 8.0 mph 18.0 mph 96 % 0.00 in 0.00 W/m2
01:23 38.2 °F 37.2 °F 29.66 in South 9.0 mph 19.0 mph 96 % 0.00 in 0.00 W/m2
01:28 38.2 °F 37.2 °F 29.66 in Calm   16.0 mph 96 % 0.00 in 0.00 W/m2
01:33 38.2 °F 37.2 °F 29.66 in South 14.0 mph 22.0 mph 96 % 0.00 in 0.00 W/m2
01:38 38.3 °F 37.3 °F 29.66 in SSW 22.0 mph 25.0 mph 96 % 0.00 in 0.00 W/m2
01:43 38.2 °F 37.2 °F 29.65 in South 22.0 mph 22.0 mph 96 % 0.00 in 0.00 W/m2
01:48 38.1 °F 36.8 °F 29.64 in SE 14.0 mph 20.0 mph 95 % 0.12 in 0.00 W/m2
01:53 38.0 °F 36.7 °F 29.64 in SSE 11.0 mph 23.0 mph 95 % 0.07 in 0.00 W/m2
01:58 38.0 °F 36.7 °F 29.63 in ESE 9.0 mph 20.0 mph 95 % 0.04 in 0.00 W/m2
02:03 37.9 °F 36.6 °F 29.62 in SE 12.0 mph 28.0 mph 95 % 0.04 in 0.00 W/m2
02:08 37.9 °F 36.6 °F 29.62 in SSE 16.0 mph 17.0 mph 95 % 0.04 in 0.00 W/m2
02:13 37.9 °F 36.6 °F 29.62 in SSE 7.0 mph 23.0 mph 95 % 0.04 in 0.00 W/m2
02:18 37.9 °F 36.6 °F 29.63 in South 19.0 mph 24.0 mph 95 % 0.04 in 0.00 W/m2
02:23 37.9 °F 36.6 °F 29.62 in South 11.0 mph 18.0 mph 95 % 0.04 in 0.00 W/m2
02:28 37.9 °F 36.6 °F 29.61 in South 7.0 mph 22.0 mph 95 % 0.04 in 0.00 W/m2
02:33 37.8 °F 36.5 °F 29.60 in SE 8.0 mph 20.0 mph 95 % 0.04 in 0.00 W/m2
02:38 37.8 °F 36.5 °F 29.60 in SE 15.0 mph 22.0 mph 95 % 0.04 in 0.00 W/m2
02:43 37.8 °F 36.5 °F 29.60 in South 20.0 mph 20.0 mph 95 % 0.04 in 0.00 W/m2
02:48 37.8 °F 36.5 °F 29.59 in SSW 11.0 mph 26.0 mph 95 % 0.04 in 0.00 W/m2
02:53 37.7 °F 36.4 °F 29.58 in SSE 11.0 mph 23.0 mph 95 % 0.06 in 0.00 W/m2
02:58 37.6 °F 36.3 °F 29.58 in SE 15.0 mph 21.0 mph 95 % 0.06 in 0.00 W/m2
03:03 37.4 °F 36.1 °F 29.57 in SE 24.0 mph 28.0 mph 95 % 0.06 in 0.00 W/m2
03:08 37.4 °F 36.1 °F 29.56 in SE 13.0 mph 23.0 mph 95 % 0.06 in 0.00 W/m2
03:13 37.3 °F 36.0 °F 29.56 in SE 5.0 mph 24.0 mph 95 % 0.05 in 0.00 W/m2
03:18 37.1 °F 35.8 °F 29.56 in SE 19.0 mph 30.0 mph 95 % 0.05 in 0.00 W/m2
03:23 37.1 °F 35.8 °F 29.55 in SSE 13.0 mph 26.0 mph 95 % 0.06 in 0.00 W/m2
03:28 37.0 °F 35.7 °F 29.54 in SSE 6.0 mph 20.0 mph 95 % 0.06 in 0.00 W/m2
03:33 37.0 °F 35.7 °F 29.53 in South 13.0 mph 23.0 mph 95 % 0.05 in 0.00 W/m2
03:38 36.9 °F 35.6 °F 29.53 in South 11.0 mph 27.0 mph 95 % 0.05 in 0.00 W/m2
03:43 36.8 °F 35.5 °F 29.53 in SE 19.0 mph 26.0 mph 95 % 0.09 in 0.00 W/m2
03:48 36.7 °F 35.4 °F 29.52 in SSE 9.0 mph 25.0 mph 95 % 0.07 in 0.00 W/m2
03:53 36.6 °F 35.3 °F 29.52 in SSE 16.0 mph 24.0 mph 95 % 0.05 in 0.00 W/m2
03:58 36.6 °F 35.3 °F 29.51 in South 21.0 mph 24.0 mph 95 % 0.14 in 0.00 W/m2
04:03 36.5 °F 35.2 °F 29.50 in SE 6.0 mph 18.0 mph 95 % 0.12 in 0.00 W/m2
04:08 36.4 °F 35.1 °F 29.49 in ESE 9.0 mph 22.0 mph 95 % 0.05 in 0.00 W/m2
04:13 36.4 °F 35.1 °F 29.49 in SSE 14.0 mph 31.0 mph 95 % 0.05 in 0.00 W/m2
04:18 36.4 °F 35.1 °F 29.48 in SSE 12.0 mph 27.0 mph 95 % 0.05 in 0.00 W/m2
04:23 36.4 °F 35.1 °F 29.47 in SSE 11.0 mph 22.0 mph 95 % 0.05 in 0.00 W/m2
04:28 36.4 °F 35.1 °F 29.47 in SE 19.0 mph 22.0 mph 95 % 0.05 in 0.00 W/m2
04:33 36.4 °F 35.1 °F 29.47 in SE 17.0 mph 27.0 mph 95 % 0.07 in 0.00 W/m2
04:39 36.4 °F 35.1 °F 29.46 in SSE 9.0 mph 19.0 mph 95 % 0.08 in 0.00 W/m2
04:44 36.3 °F 35.0 °F 29.46 in SE 19.0 mph 28.0 mph 95 % 0.08 in 0.00 W/m2
04:49 36.3 °F 35.0 °F 29.46 in SE 13.0 mph 27.0 mph 95 % 0.06 in 0.00 W/m2
04:54 36.3 °F 35.0 °F 29.45 in SSE 12.0 mph 23.0 mph 95 % 0.04 in 0.00 W/m2
04:59 36.2 °F 34.9 °F 29.45 in SE 8.0 mph 25.0 mph 95 % 0.04 in 0.00 W/m2
05:04 36.1 °F 34.8 °F 29.44 in SE 17.0 mph 23.0 mph 95 % 0.08 in 0.00 W/m2
05:09 36.1 °F 34.8 °F 29.44 in East 7.0 mph 21.0 mph 95 % 0.08 in 0.00 W/m2
05:14 36.1 °F 34.8 °F 29.45 in SE 12.0 mph 20.0 mph 95 % 0.08 in 0.00 W/m2
05:19 36.1 °F 34.8 °F 29.44 in SSE 13.0 mph 17.0 mph 95 % 0.09 in 0.00 W/m2
05:24 36.1 °F 34.8 °F 29.43 in South 10.0 mph 21.0 mph 95 % 0.07 in 0.00 W/m2
05:29 36.1 °F 34.8 °F 29.43 in South 15.0 mph 20.0 mph 95 % 0.06 in 0.00 W/m2
05:34 36.0 °F 34.7 °F 29.44 in South 19.0 mph 22.0 mph 95 % 0.14 in 0.00 W/m2
05:39 35.9 °F 34.6 °F 29.43 in SSE 8.0 mph 27.0 mph 95 % 0.20 in 0.00 W/m2
05:44 35.5 °F 34.2 °F 29.43 in ESE 8.0 mph 25.0 mph 95 % 0.10 in 0.00 W/m2
05:49 35.2 °F 33.9 °F 29.43 in SSE 18.0 mph 18.0 mph 95 % 0.09 in 0.00 W/m2
05:54 34.8 °F 33.5 °F 29.44 in South 14.0 mph 18.0 mph 95 % 0.07 in 0.00 W/m2
05:59 34.5 °F 33.2 °F 29.43 in South 9.0 mph 26.0 mph 95 % 0.07 in 0.00 W/m2
06:04 34.3 °F 33.0 °F 29.43 in South 13.0 mph 24.0 mph 95 % 0.05 in 0.00 W/m2
06:09 34.2 °F 32.9 °F 29.42 in SSE 8.0 mph 20.0 mph 95 % 0.05 in 0.00 W/m2
06:11 34.1 °F 32.8 °F 29.43 in South 18.0 mph 18.0 mph 95 % 0.05 in 0.00 W/m2
06:16 34.1 °F 32.8 °F 29.43 in South 7.0 mph 20.0 mph 95 % 0.06 in 0.00 W/m2
06:21 34.2 °F 32.9 °F 29.42 in SSE 7.0 mph 16.0 mph 95 % 0.06 in 0.00 W/m2
06:27 34.3 °F 33.0 °F 29.42 in South 7.0 mph 17.0 mph 95 % 0.05 in 0.00 W/m2
06:32 34.4 °F 33.1 °F 29.41 in SE 17.0 mph 18.0 mph 95 % 0.05 in 0.00 W/m2
06:37 34.6 °F 33.3 °F 29.42 in South 15.0 mph 25.0 mph 95 % 0.06 in 0.00 W/m2
06:41 34.9 °F 33.6 °F 29.41 in SSE 11.0 mph 22.0 mph 95 % 0.06 in 0.00 W/m2
06:46 35.2 °F 33.9 °F 29.41 in SSE 11.0 mph 12.0 mph 95 % 0.06 in 0.00 W/m2
06:51 35.6 °F 34.3 °F 29.41 in South 9.0 mph 24.0 mph 95 % 0.04 in 0.00 W/m2
06:57 35.8 °F 34.5 °F 29.41 in SE 4.0 mph 23.0 mph 95 % 0.04 in 0.00 W/m2
07:02 36.0 °F 34.7 °F 29.42 in SSW 13.0 mph 15.0 mph 95 % 0.04 in 0.00 W/m2
07:07 36.2 °F 34.9 °F 29.42 in SSE 12.0 mph 14.0 mph 95 % 0.05 in 0.00 W/m2
07:12 36.4 °F 35.1 °F 29.41 in SSE 16.0 mph 18.0 mph 95 % 0.05 in 0.00 W/m2
07:24 36.7 °F 35.7 °F 29.40 in South 15.0 mph 24.0 mph 96 % 0.00 in 0.00 W/m2
07:44 36.9 °F 35.6 °F 29.40 in South 16.0 mph 25.0 mph 95 % 0.04 in 0.00 W/m2
07:49 37.0 °F 35.7 °F 29.40 in SSW 15.0 mph 21.0 mph 95 % 0.04 in 0.00 W/m2
07:54 36.9 °F 35.6 °F 29.40 in SSW 7.0 mph 23.0 mph 95 % 0.04 in 7.00 W/m2
07:59 36.9 °F 35.6 °F 29.40 in SW 8.0 mph 24.0 mph 95 % 0.00 in 7.00 W/m2
08:04 36.9 °F 35.6 °F 29.39 in SSE 7.0 mph 17.0 mph 95 % 0.00 in 9.00 W/m2
08:09 36.9 °F 35.6 °F 29.40 in SSE 10.0 mph 19.0 mph 95 % 0.00 in 7.00 W/m2
08:14 36.9 °F 35.6 °F 29.40 in South 10.0 mph 14.0 mph 95 % 0.00 in 16.00 W/m2
08:19 36.9 °F 35.6 °F 29.41 in South 9.0 mph 17.0 mph 95 % 0.00 in 16.00 W/m2
08:24 36.9 °F 35.6 °F 29.41 in South 6.0 mph 24.0 mph 95 % 0.00 in 16.00 W/m2
08:29 36.9 °F 35.6 °F 29.41 in SE 13.0 mph 20.0 mph 95 % 0.00 in 21.00 W/m2
08:34 36.9 °F 35.6 °F 29.41 in SSE 13.0 mph 31.0 mph 95 % 0.00 in 28.00 W/m2
08:44 36.8 °F 35.5 °F 29.41 in SSE 15.0 mph 25.0 mph 95 % 0.00 in 28.00 W/m2
08:49 36.8 °F 35.5 °F 29.41 in SSE 8.0 mph 25.0 mph 95 % 0.00 in 23.00 W/m2
08:54 36.8 °F 35.5 °F 29.41 in SE 19.0 mph 23.0 mph 95 % 0.00 in 25.00 W/m2
08:59 36.8 °F 35.5 °F 29.42 in SSE 13.0 mph 23.0 mph 95 % 0.00 in 25.00 W/m2
09:04 36.7 °F 35.4 °F 29.41 in South 8.0 mph 28.0 mph 95 % 0.00 in 33.00 W/m2
09:09 36.8 °F 35.5 °F 29.41 in SE 11.0 mph 22.0 mph 95 % 0.00 in 32.00 W/m2
09:14 36.7 °F 35.4 °F 29.41 in South 19.0 mph 23.0 mph 95 % 0.00 in 30.00 W/m2
09:19 36.8 °F 35.5 °F 29.41 in SSE 19.0 mph 25.0 mph 95 % 0.00 in 39.00 W/m2
09:25 36.8 °F 35.5 °F 29.41 in SE 21.0 mph 24.0 mph 95 % 0.00 in 39.00 W/m2
09:30 36.9 °F 35.6 °F 29.41 in South 9.0 mph 23.0 mph 95 % 0.00 in 35.00 W/m2
09:35 36.9 °F 35.6 °F 29.41 in SSE 13.0 mph 25.0 mph 95 % 0.00 in 51.00 W/m2
09:40 37.0 °F 35.7 °F 29.41 in South 14.0 mph 26.0 mph 95 % 0.00 in 49.00 W/m2
09:45 37.0 °F 35.7 °F 29.41 in South 20.0 mph 22.0 mph 95 % 0.00 in 42.00 W/m2
09:50 37.0 °F 35.7 °F 29.42 in South 9.0 mph 26.0 mph 95 % 0.00 in 33.00 W/m2
09:55 37.0 °F 35.7 °F 29.42 in SSE 10.0 mph 21.0 mph 95 % 0.00 in 49.00 W/m2
10:00 37.0 °F 35.7 °F 29.42 in SSW 12.0 mph 27.0 mph 95 % 0.00 in 49.00 W/m2
10:05 37.0 °F 35.7 °F 29.42 in SSE 12.0 mph 29.0 mph 95 % 0.00 in 56.00 W/m2
10:10 37.0 °F 35.7 °F 29.41 in South 6.0 mph 24.0 mph 95 % 0.00 in 44.00 W/m2
10:15 36.9 °F 35.6 °F 29.41 in SSE 21.0 mph 21.0 mph 95 % 0.00 in 53.00 W/m2
10:20 36.9 °F 35.6 °F 29.42 in SSW 20.0 mph 20.0 mph 95 % 0.00 in 51.00 W/m2
10:25 37.0 °F 35.7 °F 29.41 in SSW 14.0 mph 24.0 mph 95 % 0.00 in 40.00 W/m2
10:30 36.9 °F 35.6 °F 29.41 in South 7.0 mph 23.0 mph 95 % 0.00 in 46.00 W/m2
10:35 36.9 °F 35.6 °F 29.41 in SSE 8.0 mph 22.0 mph 95 % 0.00 in 49.00 W/m2
10:40 36.9 °F 35.6 °F 29.41 in SSW 9.0 mph 15.0 mph 95 % 0.00 in 67.00 W/m2
10:45 36.9 °F 35.6 °F 29.41 in SSE 12.0 mph 16.0 mph 95 % 0.00 in 67.00 W/m2
10:50 37.0 °F 35.7 °F 29.40 in SSE 6.0 mph 16.0 mph 95 % 0.00 in 76.00 W/m2
10:55 37.0 °F 35.7 °F 29.40 in South 10.0 mph 21.0 mph 95 % 0.00 in 72.00 W/m2
11:00 37.0 °F 35.7 °F 29.40 in SSE 13.0 mph 20.0 mph 95 % 0.00 in 63.00 W/m2
11:05 37.1 °F 35.8 °F 29.40 in South 13.0 mph 22.0 mph 95 % 0.00 in 93.00 W/m2
11:10 37.1 °F 35.8 °F 29.40 in South 10.0 mph 17.0 mph 95 % 0.00 in 76.00 W/m2
11:15 37.2 °F 35.9 °F 29.40 in South 17.0 mph 18.0 mph 95 % 0.00 in 116.00 W/m2
11:20 37.3 °F 36.0 °F 29.40 in SE 9.0 mph 22.0 mph 95 % 0.00 in 83.00 W/m2
11:25 37.4 °F 36.1 °F 29.39 in SSE 7.0 mph 17.0 mph 95 % 0.00 in 60.00 W/m2
11:30 37.4 °F 36.1 °F 29.40 in SSW 8.0 mph 16.0 mph 95 % 0.00 in 56.00 W/m2
11:35 37.5 °F 36.2 °F 29.40 in South 13.0 mph 16.0 mph 95 % 0.00 in 62.00 W/m2
11:40 37.5 °F 36.2 °F 29.39 in South 7.0 mph 23.0 mph 95 % 0.00 in 65.00 W/m2
11:45 37.6 °F 36.3 °F 29.39 in SSW 8.0 mph 19.0 mph 95 % 0.00 in 62.00 W/m2
11:50 37.7 °F 36.7 °F 29.39 in South 13.0 mph 18.0 mph 96 % 0.00 in 54.00 W/m2
11:55 37.7 °F 36.4 °F 29.39 in SSE 9.0 mph 19.0 mph 95 % 0.00 in 70.00 W/m2
12:00 37.7 °F 36.4 °F 29.38 in South 3.0 mph 20.0 mph 95 % 0.00 in 67.00 W/m2
12:05 37.8 °F 36.5 °F 29.38 in South 9.0 mph 20.0 mph 95 % 0.00 in 63.00 W/m2
12:10 37.9 °F 36.6 °F 29.38 in SSE 9.0 mph 18.0 mph 95 % 0.00 in 60.00 W/m2
12:15 37.9 °F 36.6 °F 29.38 in South 4.0 mph 18.0 mph 95 % 0.00 in 76.00 W/m2
12:20 38.0 °F 36.7 °F 29.38 in South 5.0 mph 15.0 mph 95 % 0.00 in 67.00 W/m2
12:25 38.1 °F 36.8 °F 29.37 in SSW 6.0 mph 21.0 mph 95 % 0.00 in 74.00 W/m2
12:30 38.2 °F 37.2 °F 29.37 in SSW 14.0 mph 19.0 mph 96 % 0.00 in 37.00 W/m2
12:35 38.2 °F 37.2 °F 29.37 in South 3.0 mph 18.0 mph 96 % 0.00 in 49.00 W/m2
12:40 38.3 °F 37.3 °F 29.36 in SSE 13.0 mph 18.0 mph 96 % 0.00 in 49.00 W/m2
12:45 38.3 °F 37.3 °F 29.36 in SSW 6.0 mph 20.0 mph 96 % 0.00 in 60.00 W/m2
12:50 38.3 °F 37.3 °F 29.36 in SSE 14.0 mph 18.0 mph 96 % 0.00 in 65.00 W/m2
12:55 38.4 °F 37.4 °F 29.36 in SSE 9.0 mph 17.0 mph 96 % 0.00 in 105.00 W/m2
12:56 38.3 °F 37.3 °F 29.36 in South 11.0 mph 13.0 mph 96 % 0.00 in 105.00 W/m2
13:01 38.4 °F 37.4 °F 29.35 in South 9.0 mph 9.0 mph 96 % 0.00 in 44.00 W/m2
13:06 38.4 °F 37.4 °F 29.35 in SSE 9.0 mph 9.0 mph 96 % 0.00 in 42.00 W/m2
13:11 38.4 °F 37.4 °F 29.35 in SSE 10.0 mph 11.0 mph 96 % 0.00 in 35.00 W/m2
13:16 38.4 °F 37.4 °F 29.35 in SSE 12.0 mph 20.0 mph 96 % 0.00 in 58.00 W/m2
13:21 38.4 °F 37.4 °F 29.35 in SSW 10.0 mph 10.0 mph 96 % 0.00 in 39.00 W/m2
13:26 38.4 °F 37.4 °F 29.36 in SSW 2.0 mph 4.0 mph 96 % 0.07 in 28.00 W/m2
13:31 38.4 °F 37.4 °F 29.36 in SSW 14.0 mph 22.0 mph 96 % 0.15 in 23.00 W/m2
13:36 38.2 °F 37.2 °F 29.36 in South 6.0 mph 6.0 mph 96 % 0.22 in 44.00 W/m2
13:41 38.0 °F 36.7 °F 29.36 in South 4.0 mph 5.0 mph 95 % 0.08 in 44.00 W/m2
13:46 37.9 °F 36.6 °F 29.35 in South 7.0 mph 7.0 mph 95 % 0.08 in 125.00 W/m2
13:51 37.9 °F 36.6 °F 29.36 in South 9.0 mph 9.0 mph 95 % 0.06 in 65.00 W/m2
13:56 37.9 °F 36.6 °F 29.35 in Calm     95 % 0.05 in 44.00 W/m2
14:01 37.9 °F 36.6 °F 29.35 in South 4.0 mph 5.0 mph 95 % 0.05 in 35.00 W/m2
14:06 38.0 °F 36.7 °F 29.35 in Calm   4.0 mph 95 % 0.05 in 60.00 W/m2
14:11 38.0 °F 36.7 °F 29.36 in SW 8.0 mph 10.0 mph 95 % 0.00 in 56.00 W/m2
14:16 38.1 °F 36.8 °F 29.36 in South 7.0 mph 9.0 mph 95 % 0.00 in 54.00 W/m2
14:21 38.2 °F 37.2 °F 29.35 in South 2.0 mph 8.0 mph 96 % 0.00 in 65.00 W/m2
14:26 38.2 °F 37.2 °F 29.35 in South 6.0 mph 13.0 mph 96 % 0.00 in 37.00 W/m2
14:31 38.2 °F 37.2 °F 29.35 in South 11.0 mph 11.0 mph 96 % 0.00 in 40.00 W/m2
14:36 38.2 °F 37.2 °F 29.35 in SSW 5.0 mph 10.0 mph 96 % 0.00 in 28.00 W/m2
14:41 38.2 °F 37.2 °F 29.36 in SSW 10.0 mph 14.0 mph 96 % 0.00 in 42.00 W/m2
14:46 38.2 °F 37.2 °F 29.36 in South 9.0 mph 9.0 mph 96 % 0.00 in 32.00 W/m2
14:51 38.2 °F 37.2 °F 29.36 in South 4.0 mph 8.0 mph 96 % 0.00 in 47.00 W/m2
14:56 38.2 °F 37.2 °F 29.36 in SSW 6.0 mph 10.0 mph 96 % 0.00 in 62.00 W/m2
15:01 38.3 °F 37.3 °F 29.36 in SSW 7.0 mph 8.0 mph 96 % 0.00 in 35.00 W/m2
15:06 38.4 °F 37.4 °F 29.36 in SSW 4.0 mph 7.0 mph 96 % 0.00 in 28.00 W/m2
15:11 38.4 °F 37.4 °F 29.35 in Calm     96 % 0.00 in 42.00 W/m2
15:16 38.5 °F 37.5 °F 29.35 in SSW 6.0 mph 10.0 mph 96 % 0.00 in 42.00 W/m2
15:22 38.5 °F 37.5 °F 29.35 in SSW 6.0 mph 9.0 mph 96 % 0.00 in 42.00 W/m2
15:27 38.5 °F 37.5 °F 29.35 in Calm   12.0 mph 96 % 0.00 in 30.00 W/m2
15:32 38.5 °F 37.2 °F 29.35 in Calm   4.0 mph 95 % 0.00 in 19.00 W/m2
15:37 38.5 °F 37.2 °F 29.35 in Calm   2.0 mph 95 % 0.00 in 12.00 W/m2
15:42 38.5 °F 37.2 °F 29.35 in South 7.0 mph 12.0 mph 95 % 0.00 in 25.00 W/m2
15:47 38.4 °F 37.4 °F 29.36 in SSE 6.0 mph 14.0 mph 96 % 0.00 in 14.00 W/m2
15:52 38.2 °F 37.2 °F 29.36 in South 13.0 mph 16.0 mph 96 % 0.00 in 16.00 W/m2
15:57 38.0 °F 36.7 °F 29.36 in SSE 7.0 mph 12.0 mph 95 % 0.00 in 23.00 W/m2
16:02 37.8 °F 36.5 °F 29.36 in South 11.0 mph 12.0 mph 95 % 0.00 in 16.00 W/m2
16:07 37.7 °F 36.7 °F 29.37 in SSW 7.0 mph 8.0 mph 96 % 0.00 in 14.00 W/m2
16:12 37.6 °F 36.6 °F 29.37 in SW 13.0 mph 13.0 mph 96 % 0.00 in 16.00 W/m2
16:17 37.5 °F 36.5 °F 29.36 in South 13.0 mph 15.0 mph 96 % 0.00 in 19.00 W/m2
16:22 37.6 °F 36.6 °F 29.37 in SSW 9.0 mph 12.0 mph 96 % 0.00 in 12.00 W/m2
16:27 37.7 °F 36.7 °F 29.37 in South 7.0 mph 12.0 mph 96 % 0.00 in 14.00 W/m2
16:32 37.7 °F 36.7 °F 29.37 in South 4.0 mph 12.0 mph 96 % 0.00 in 9.00 W/m2
16:37 37.7 °F 36.7 °F 29.37 in SSW 6.0 mph 11.0 mph 96 % 0.00 in 9.00 W/m2
16:42 37.8 °F 36.8 °F 29.37 in South 2.0 mph 9.0 mph 96 % 0.00 in 5.00 W/m2
16:47 37.8 °F 36.5 °F 29.37 in South 5.0 mph 11.0 mph 95 % 0.00 in 5.00 W/m2
16:52 37.9 °F 36.6 °F 29.37 in SW 11.0 mph 13.0 mph 95 % 0.00 in 9.00 W/m2
16:57 37.9 °F 36.6 °F 29.37 in SSW 4.0 mph 8.0 mph 95 % 0.00 in 5.00 W/m2
17:02 37.9 °F 36.6 °F 29.37 in SSE 10.0 mph 11.0 mph 95 % 0.00 in 0.00 W/m2
17:07 37.9 °F 36.6 °F 29.37 in SSW 6.0 mph 7.0 mph 95 % 0.00 in 0.00 W/m2
17:12 38.0 °F 37.0 °F 29.37 in SSW 8.0 mph 14.0 mph 96 % 0.00 in 0.00 W/m2
17:17 38.0 °F 36.7 °F 29.37 in South 10.0 mph 12.0 mph 95 % 0.00 in 0.00 W/m2
17:22 37.9 °F 36.6 °F 29.38 in Calm   11.0 mph 95 % 0.00 in 0.00 W/m2
17:27 37.9 °F 36.6 °F 29.38 in SSE 2.0 mph 14.0 mph 95 % 0.00 in 0.00 W/m2
17:32 37.9 °F 36.9 °F 29.38 in SE 8.0 mph 12.0 mph 96 % 0.00 in 0.00 W/m2
17:37 37.9 °F 36.9 °F 29.38 in South 15.0 mph 19.0 mph 96 % 0.00 in 0.00 W/m2
17:42 37.9 °F 36.6 °F 29.39 in South 5.0 mph 15.0 mph 95 % 0.00 in 0.00 W/m2
17:47 37.8 °F 36.8 °F 29.39 in South 6.0 mph 10.0 mph 96 % 0.00 in 0.00 W/m2
17:52 37.8 °F 36.8 °F 29.39 in South 9.0 mph 15.0 mph 96 % 0.00 in 0.00 W/m2
17:58 37.8 °F 36.8 °F 29.39 in SE 6.0 mph 16.0 mph 96 % 0.00 in 0.00 W/m2
18:02 37.7 °F 36.7 °F 29.39 in SSE 5.0 mph 12.0 mph 96 % 0.00 in 0.00 W/m2
18:08 37.7 °F 36.7 °F 29.39 in South 6.0 mph 10.0 mph 96 % 0.00 in 0.00 W/m2
18:13 37.7 °F 36.7 °F 29.39 in SSW 8.0 mph 11.0 mph 96 % 0.00 in 0.00 W/m2
18:18 37.7 °F 36.4 °F 29.39 in SSW 9.0 mph 13.0 mph 95 % 0.00 in 0.00 W/m2
18:23 37.7 °F 36.4 °F 29.40 in SSW 9.0 mph 22.0 mph 95 % 0.00 in 0.00 W/m2
18:28 37.6 °F 36.3 °F 29.40 in SW 7.0 mph 15.0 mph 95 % 0.00 in 0.00 W/m2
18:33 37.6 °F 36.3 °F 29.40 in South 6.0 mph 11.0 mph 95 % 0.00 in 0.00 W/m2
18:38 37.6 °F 36.3 °F 29.40 in SW 4.0 mph 11.0 mph 95 % 0.00 in 0.00 W/m2
18:43 37.6 °F 36.3 °F 29.40 in SW 4.0 mph 11.0 mph 95 % 0.00 in 0.00 W/m2
18:48 37.6 °F 36.3 °F 29.41 in SSW 4.0 mph 10.0 mph 95 % 0.00 in 0.00 W/m2
18:53 37.5 °F 36.2 °F 29.41 in SW 10.0 mph 11.0 mph 95 % 0.00 in 0.00 W/m2
18:58 37.4 °F 36.1 °F 29.41 in South 8.0 mph 9.0 mph 95 % 0.00 in 0.00 W/m2
19:03 37.5 °F 36.2 °F 29.41 in SW 2.0 mph 12.0 mph 95 % 0.00 in 0.00 W/m2
19:08 37.5 °F 36.2 °F 29.42 in South 6.0 mph 19.0 mph 95 % 0.00 in 0.00 W/m2
19:13 37.5 °F 36.2 °F 29.42 in SW 12.0 mph 13.0 mph 95 % 0.00 in 0.00 W/m2
19:18 37.5 °F 36.2 °F 29.42 in SSW 6.0 mph 11.0 mph 95 % 0.00 in 0.00 W/m2
19:23 37.5 °F 36.2 °F 29.42 in SSW 5.0 mph 12.0 mph 95 % 0.00 in 0.00 W/m2
19:28 37.5 °F 36.2 °F 29.42 in SSW 9.0 mph 17.0 mph 95 % 0.00 in 0.00 W/m2
19:33 37.4 °F 36.1 °F 29.42 in SW 11.0 mph 14.0 mph 95 % 0.00 in 0.00 W/m2
19:38 37.4 °F 36.1 °F 29.42 in SW 11.0 mph 20.0 mph 95 % 0.00 in 0.00 W/m2
19:43 37.4 °F 36.1 °F 29.42 in SSW 8.0 mph 13.0 mph 95 % 0.00 in 0.00 W/m2
19:48 37.4 °F 36.1 °F 29.43 in South 7.0 mph 13.0 mph 95 % 0.00 in 0.00 W/m2
19:53 37.4 °F 36.1 °F 29.43 in SSW 5.0 mph 10.0 mph 95 % 0.00 in 0.00 W/m2
19:58 37.5 °F 36.2 °F 29.43 in SSE 8.0 mph 12.0 mph 95 % 0.00 in 0.00 W/m2
20:03 37.5 °F 36.2 °F 29.43 in SSW 4.0 mph 13.0 mph 95 % 0.00 in 0.00 W/m2
20:08 37.5 °F 36.2 °F 29.43 in South 6.0 mph 18.0 mph 95 % 0.00 in 0.00 W/m2
20:13 37.4 °F 36.1 °F 29.43 in SSE 14.0 mph 18.0 mph 95 % 0.08 in 0.00 W/m2
20:18 37.4 °F 36.4 °F 29.44 in SSW 8.0 mph 22.0 mph 96 % 0.08 in 0.00 W/m2
20:23 37.3 °F 36.3 °F 29.44 in SW 2.0 mph 10.0 mph 96 % 0.07 in 0.00 W/m2
20:28 37.2 °F 36.2 °F 29.44 in SSW 15.0 mph 15.0 mph 96 % 0.08 in 0.00 W/m2
20:33 37.2 °F 36.2 °F 29.44 in South 1.0 mph 12.0 mph 96 % 0.22 in 0.00 W/m2
20:38 37.1 °F 36.1 °F 29.44 in SSW 1.0 mph 16.0 mph 96 % 0.15 in 0.00 W/m2
20:43 36.8 °F 35.5 °F 29.45 in SSW 13.0 mph 13.0 mph 95 % 0.14 in 0.00 W/m2
20:48 36.8 °F 35.5 °F 29.45 in SW 5.0 mph 14.0 mph 95 % 0.07 in 0.00 W/m2
20:53 36.8 °F 35.5 °F 29.45 in SSW 4.0 mph 16.0 mph 95 % 0.04 in 0.00 W/m2
20:58 36.8 °F 35.5 °F 29.45 in Calm   15.0 mph 95 % 0.04 in 0.00 W/m2
21:03 36.8 °F 35.5 °F 29.45 in SW 8.0 mph 14.0 mph 95 % 0.04 in 0.00 W/m2
21:08 36.8 °F 35.5 °F 29.46 in SW 12.0 mph 13.0 mph 95 % 0.06 in 0.00 W/m2
21:13 36.7 °F 35.7 °F 29.46 in South 13.0 mph 13.0 mph 96 % 0.14 in 0.00 W/m2
21:18 36.6 °F 35.6 °F 29.47 in South 9.0 mph 14.0 mph 96 % 0.16 in 0.00 W/m2
21:23 36.5 °F 35.5 °F 29.47 in SSW 5.0 mph 10.0 mph 96 % 0.09 in 0.00 W/m2
21:28 36.4 °F 35.1 °F 29.47 in SSW 4.0 mph 11.0 mph 95 % 0.16 in 0.00 W/m2
21:33 36.2 °F 34.9 °F 29.47 in WSW 1.0 mph 11.0 mph 95 % 0.10 in 0.00 W/m2
21:38 36.2 °F 34.9 °F 29.48 in Calm   11.0 mph 95 % 0.15 in 0.00 W/m2
21:43 36.1 °F 34.8 °F 29.48 in SSW 7.0 mph 12.0 mph 95 % 0.20 in 0.00 W/m2
21:48 36.0 °F 35.0 °F 29.48 in SW 8.0 mph 14.0 mph 96 % 0.13 in 0.00 W/m2
21:53 35.9 °F 34.9 °F 29.49 in South 12.0 mph 14.0 mph 96 % 0.09 in 0.00 W/m2
21:58 36.0 °F 35.0 °F 29.49 in SSW 6.0 mph 14.0 mph 96 % 0.08 in 0.00 W/m2
22:03 36.0 °F 35.0 °F 29.49 in SSW 5.0 mph 8.0 mph 96 % 0.07 in 0.00 W/m2
22:08 36.0 °F 35.0 °F 29.49 in Calm     96 % 0.04 in 0.00 W/m2
22:13 36.0 °F 35.0 °F 29.50 in Calm     96 % 0.04 in 0.00 W/m2
22:18 36.0 °F 35.0 °F 29.50 in SW 6.0 mph 9.0 mph 96 % 0.04 in 0.00 W/m2
22:23 36.0 °F 35.0 °F 29.50 in Calm     96 % 0.05 in 0.00 W/m2
22:28 36.1 °F 35.1 °F 29.50 in SW 7.0 mph 12.0 mph 96 % 0.05 in 0.00 W/m2
22:33 36.1 °F 34.8 °F 29.50 in South 8.0 mph 11.0 mph 95 % 0.05 in 0.00 W/m2
22:38 36.1 °F 35.1 °F 29.51 in SSW 3.0 mph 10.0 mph 96 % 0.00 in 0.00 W/m2
22:43 36.2 °F 35.2 °F 29.51 in South 2.0 mph 12.0 mph 96 % 0.00 in 0.00 W/m2
22:48 36.2 °F 35.2 °F 29.51 in South 3.0 mph 12.0 mph 96 % 0.00 in 0.00 W/m2
22:53 36.2 °F 35.2 °F 29.51 in SSW 9.0 mph 14.0 mph 96 % 0.00 in 0.00 W/m2
22:58 36.3 °F 35.3 °F 29.51 in SSW 4.0 mph 9.0 mph 96 % 0.00 in 0.00 W/m2
23:03 36.3 °F 35.3 °F 29.51 in South 7.0 mph 14.0 mph 96 % 0.00 in 0.00 W/m2
23:08 36.4 °F 35.4 °F 29.52 in Calm   11.0 mph 96 % 0.04 in 0.00 W/m2
23:13 36.4 °F 35.4 °F 29.52 in Calm   15.0 mph 96 % 0.04 in 0.00 W/m2
23:18 36.4 °F 35.4 °F 29.52 in SW 7.0 mph 14.0 mph 96 % 0.05 in 0.00 W/m2
23:23 36.3 °F 35.3 °F 29.52 in South 7.0 mph 14.0 mph 96 % 0.05 in 0.00 W/m2
23:28 36.3 °F 35.3 °F 29.53 in Calm     96 % 0.05 in 0.00 W/m2
23:33 36.3 °F 35.3 °F 29.53 in SSE 10.0 mph 11.0 mph 96 % 0.04 in 0.00 W/m2
23:38 36.3 °F 35.3 °F 29.53 in SSE 2.0 mph 13.0 mph 96 % 0.00 in 0.00 W/m2
23:43 36.3 °F 35.3 °F 29.53 in SSW 10.0 mph 12.0 mph 96 % 0.00 in 0.00 W/m2
23:48 36.3 °F 35.3 °F 29.53 in South 4.0 mph 9.0 mph 96 % 0.00 in 0.00 W/m2
23:53 36.3 °F 35.3 °F 29.53 in SW 12.0 mph 12.0 mph 96 % 0.00 in 0.00 W/m2
23:58 36.4 °F 35.4 °F 29.54 in SSW 6.0 mph 9.0 mph 96 % 0.00 in 0.00 W/m2
Juneau County Weather
Compliments of Weather Underground - 4.5 mb
 WU-history PHP script courtesy of   Juneau County Weather.
powered by Cumulus v1.9.3 (1059)
Ambient Weather VWS v14.00
Top Contact Website Map Copyright © 2007 - 2018 Foresthillweather.com Never base important decisions on this or any weather information obtained from the Internet